Hlavní strana
METAR-TAF:

METAR-TAF

Letiště :

Majuro, Marshallovy ostrovy

zeměpisná šířka: 07-04N, zeměpisná délka: 171-17E, výška: 2 m

Aktuální stav počasí

Zpráva byla vytvořena před 2 hodinami a 0 minutami, v 19:59 UTC
Severovýchodní vítr 13 kt
Teplota 28°C
Vlhkost vzduchu 79%
Tlak 1012 hPa
Viditelnost: 24.1 km
Skoro jasno ve výšce 1500 ft
Polojasno ve výšce 5000 ft
Oblačno až skoro zataženo ve výšce 30000 ft

METAR: PKMJ 211959Z 05013KT 15SM FEW015 SCT050 BKN300 28/24 A2987

Čas: 09:59 (21:59 UTC)

Předpověď počasí

Zpráva byla vytvořena před 4 hodinami a 15 minutami, v 17:44 UTC
Předpověď platná od 21 v 18 UTC do 22 v 18 UTC
Východoseverovýchodní vítr 11 kt
Viditelnost: 10 km
Skoro jasno ve výšce 2000 ft
Skoro jasno ve výšce 5000 ft
Od 22 v 0000 UTC
Východoseverovýchodní vítr 15 kt
Viditelnost: 10 km
Skoro jasno ve výšce 2000 ft
Polojasno ve výšce 5000 ft

TAF: PKMJ 211744Z 2118/2218 07011KT P6SM FEW020 FEW050 FM220000 07015KT P6SM FEW020 SCT050

Stav a předpovědi počasí z více než 4 000 letišť (zprávy METAR a TAF).

Červené a žluté tečky na mapě představují dostupné meteorologické stanice.

Když kurzor umístíte na tečku, zobrazí se název stanice.

Pak kliknutím zobrazíte stav a předpověď počasí.

Chcete-li změnit mapu, kliknutím na zelené tlačítko se znaménkem +mapu přiblížíte, kliknutím na zelené tlačítko se znaménkem – mapu oddálíte a kliknutím na zelené šipky přejdete na sousední mapy.


METAR-TAF: